地図

経路データ

SID SEASON NUMBER BASIN SUBBASIN NAME ISO_TIME NATURE LAT LON WMO_WIND WMO_PRES WMO_AGENCY TRACK_TYPE DIST2LAND LANDFALL IFLAG USA_AGENCY USA_ATCF_ID USA_LAT USA_LON USA_RECORD USA_STATUS USA_WIND USA_PRES USA_SSHS USA_R34_NE USA_R34_SE USA_R34_SW USA_R34_NW USA_R50_NE USA_R50_SE USA_R50_SW USA_R50_NW USA_R64_NE USA_R64_SE USA_R64_SW USA_R64_NW USA_POCI USA_ROCI USA_RMW USA_EYE TOKYO_LAT TOKYO_LON TOKYO_GRADE TOKYO_WIND TOKYO_PRES TOKYO_R50_DIR TOKYO_R50_LONG TOKYO_R50_SHORT TOKYO_R30_DIR TOKYO_R30_LONG TOKYO_R30_SHORT TOKYO_LAND CMA_LAT CMA_LON CMA_CAT CMA_WIND CMA_PRES HKO_LAT HKO_LON HKO_CAT HKO_WIND HKO_PRES NEWDELHI_LAT NEWDELHI_LON NEWDELHI_GRADE NEWDELHI_WIND NEWDELHI_PRES NEWDELHI_CI NEWDELHI_DP NEWDELHI_POCI REUNION_LAT REUNION_LON REUNION_TYPE REUNION_WIND REUNION_PRES REUNION_TNUM REUNION_CI REUNION_RMW REUNION_R34_NE REUNION_R34_SE REUNION_R34_SW REUNION_R34_NW REUNION_R50_NE REUNION_R50_SE REUNION_R50_SW REUNION_R50_NW REUNION_R64_NE REUNION_R64_SE REUNION_R64_SW REUNION_R64_NW BOM_LAT BOM_LON BOM_TYPE BOM_WIND BOM_PRES BOM_TNUM BOM_CI BOM_RMW BOM_R34_NE BOM_R34_SE BOM_R34_SW BOM_R34_NW BOM_R50_NE BOM_R50_SE BOM_R50_SW BOM_R50_NW BOM_R64_NE BOM_R64_SE BOM_R64_SW BOM_R64_NW BOM_ROCI BOM_POCI BOM_EYE BOM_POS_METHOD BOM_PRES_METHOD NADI_LAT NADI_LON NADI_CAT NADI_WIND NADI_PRES WELLINGTON_LAT WELLINGTON_LON WELLINGTON_WIND WELLINGTON_PRES DS824_LAT DS824_LON DS824_STAGE DS824_WIND DS824_PRES TD9636_LAT TD9636_LON TD9636_STAGE TD9636_WIND TD9636_PRES TD9635_LAT TD9635_LON TD9635_WIND TD9635_PRES TD9635_ROCI NEUMANN_LAT NEUMANN_LON NEUMANN_CLASS NEUMANN_WIND NEUMANN_PRES MLC_LAT MLC_LON MLC_CLASS MLC_WIND MLC_PRES USA_GUST BOM_GUST BOM_GUST_PER REUNION_GUST REUNION_GUST_PER USA_SEAHGT USA_SEARAD_NE USA_SEARAD_SE USA_SEARAD_SW USA_SEARAD_NW STORM_SPEED STORM_DIR
1940308N10074 1940 78 NI AS NOT_NAMED 1940-11-03 00:00:00 TS 9.80000 73.9000 main 245 245 _________O____ -1 9.80000 73.9000 TC 30 2 270
1940308N10074 1940 78 NI AS NOT_NAMED 1940-11-03 03:00:00 TS 9.80000 73.7800 main 255 255 _________PO___ -1 9.80000 73.7200 TC 30 9.80000 73.9000 1 3 270
1940308N10074 1940 78 NI AS NOT_NAMED 1940-11-03 06:00:00 TS 9.80066 73.5644 main 275 275 _________OP___ -1 9.80000 73.5000 TC 30 9.80164 73.6609 1 5 270
1940308N10074 1940 78 NI AS NOT_NAMED 1940-11-03 09:00:00 TS 9.80110 73.3018 main 305 305 _________PP___ -1 9.80001 73.2150 TC 30 9.80256 73.4175 1 5 270
1940308N10074 1940 78 NI AS NOT_NAMED 1940-11-03 12:00:00 TS 9.80110 73.0327 main 336 336 _________OP___ -1 9.80000 72.9000 TC 30 9.80221 73.1653 1 5 270
1940308N10074 1940 78 NI AS NOT_NAMED 1940-11-03 15:00:00 TS 9.80000 72.7463 main 367 367 _________PO___ -1 9.79999 72.5925 TC 30 9.80000 72.9000 1 6 270
1940308N10074 1940 78 NI AS NOT_NAMED 1940-11-03 18:00:00 TS 9.79798 72.4600 main 384 384 _________OP___ -1 9.80000 72.3000 TC 30 9.79596 72.6200 1 6 270
1940308N10074 1940 78 NI AS NOT_NAMED 1940-11-03 21:00:00 TS 9.79626 72.1850 main 410 410 _________PP___ -1 9.79998 72.0350 TC 30 9.79255 72.3350 1 5 270
1940308N10074 1940 78 NI AS NOT_NAMED 1940-11-04 00:00:00 TS 9.79642 71.9287 main 436 436 _________OP___ -1 9.80000 71.8000 TC 30 9.79285 72.0575 1 5 270
1940308N10074 1940 78 NI AS NOT_NAMED 1940-11-04 03:00:00 TS 9.79624 71.6962 main 454 454 _________PO___ -1 9.79248 71.5925 TC 31 9.80000 71.8000 1 4 272
1940308N10074 1940 78 NI AS NOT_NAMED 1940-11-04 06:00:00 TS 9.81085 71.4974 main 473 473 _________OP___ -1 9.80000 71.4000 TC 32 9.82169 71.5947 1 4 278
1940308N10074 1940 78 NI AS NOT_NAMED 1940-11-04 09:00:00 TS 9.84985 71.3113 main 492 486 _________PP___ -1 9.84996 71.2150 TC 33 9.84974 71.4075 1 4 282
1940308N10074 1940 78 NI AS NOT_NAMED 1940-11-04 12:00:00 TS 9.88897 71.1083 main 505 505 _________OP___ -1 9.90000 71.0000 TC 34 9.87793 71.2166 1 5 277
1940308N10074 1940 78 NI AS NOT_NAMED 1940-11-04 15:00:00 TS 9.90375 70.8575 main 525 525 _________PO___ -1 9.90751 70.7150 TC 36 9.90000 71.0000 2 5 271
1940308N10074 1940 78 NI AS NOT_NAMED 1940-11-04 18:00:00 TS 9.90158 70.5643 main 554 554 _________OP___ -1 9.90000 70.4000 TC 39 9.90315 70.7287 2 6 270
1940308N10074 1940 78 NI AS NOT_NAMED 1940-11-04 21:00:00 TS 9.90000 70.2650 main 584 584 _________PP___ -1 9.89997 70.1000 TC 42 9.90003 70.4299 2 6 270
1940308N10074 1940 78 NI AS NOT_NAMED 1940-11-05 00:00:00 TS 9.89844 69.9581 main 613 613 _________OP___ -1 9.90000 69.8000 TC 45 9.89689 70.1162 2 6 270
1940308N10074 1940 78 NI AS NOT_NAMED 1940-11-05 03:00:00 TS 9.89624 69.6500 main 642 652 _________PO___ -1 9.89247 69.5000 TC 45 9.90000 69.8000 3 6 271
1940308N10074 1940 78 NI AS NOT_NAMED 1940-11-05 06:00:00 TS 9.90681 69.3540 main 672 672 _________OP___ -1 9.90000 69.2000 TC 45 9.91362 69.5081 3 6 274
1940308N10074 1940 78 NI AS NOT_NAMED 1940-11-05 09:00:00 TS 9.93863 69.0612 main 701 701 _________PP___ -1 9.94245 68.9075 TC 45 9.93481 69.2150 3 6 277
1940308N10074 1940 78 NI AS NOT_NAMED 1940-11-05 12:00:00 TS 9.98180 68.7572 main 725 725 _________OP___ -1 10.0000 68.6000 TC 45 9.96360 68.9143 3 6 278
1940308N10074 1940 78 NI AS NOT_NAMED 1940-11-05 15:00:00 TS 10.0250 68.4287 main 765 765 _________PO___ -1 10.0500 68.2575 TC 45 10.0000 68.6000 3 7 278
1940308N10074 1940 78 NI AS NOT_NAMED 1940-11-05 18:00:00 TS 10.0734 68.0863 main 790 790 _________OP___ -1 10.1000 67.9000 TC 45 10.0468 68.2725 3 7 279
1940308N10074 1940 78 NI AS NOT_NAMED 1940-11-05 21:00:00 TS 10.1286 67.7438 main 831 831 _________PP___ -1 10.1574 67.5575 TC 45 10.0998 67.9300 3 7 279
1940308N10074 1940 78 NI AS NOT_NAMED 1940-11-06 00:00:00 TS 10.1765 67.3863 main 857 857 _________OP___ -1 10.2000 67.2000 TC 45 10.1530 67.5725 3 7 276
1940308N10074 1940 78 NI AS NOT_NAMED 1940-11-06 03:00:00 TS 10.2000 67.0037 main 898 898 _________PO___ -1 10.2000 66.8074 TC 45 10.2000 67.2000 3 8 273
1940308N10074 1940 78 NI AS NOT_NAMED 1940-11-06 06:00:00 TS 10.2120 66.6071 main 940 940 _________OP___ -1 10.2000 66.4000 TC 45 10.2240 66.8142 3 8 273
1940308N10074 1940 78 NI AS NOT_NAMED 1940-11-06 09:00:00 TS 10.2424 66.2074 main 981 981 _________PP___ -1 10.2425 66.0000 TC 45 10.2424 66.4148 3 8 275
1940308N10074 1940 78 NI AS NOT_NAMED 1940-11-06 12:00:00 TS 10.2823 65.8040 main 1020 1020 _________OP___ -1 10.3000 65.6000 TC 45 10.2646 66.0080 3 8 276
1940308N10074 1940 78 NI AS NOT_NAMED 1940-11-06 15:00:00 TS 10.3212 65.4000 main 1062 1062 _________PO___ -1 10.3425 65.2000 TC 45 10.3000 65.6000 3 8 277
1940308N10074 1940 78 NI AS NOT_NAMED 1940-11-06 18:00:00 TS 10.3803 64.9980 main 1099 1099 _________OP___ -1 10.4000 64.8000 TC 45 10.3605 65.1960 3 8 280
1940308N10074 1940 78 NI AS NOT_NAMED 1940-11-06 21:00:00 TS 10.4674 64.5963 main 1125 1080 _________PP___ -1 10.5000 64.4000 TC 45 10.4349 64.7925 3 8 283
1940308N10074 1940 78 NI AS NOT_NAMED 1940-11-07 00:00:00 TS 10.5584 64.1964 main 1080 1038 _________OP___ -1 10.6000 64.0000 TC 45 10.5168 64.3928 3 8 281
1940308N10074 1940 78 NI AS NOT_NAMED 1940-11-07 03:00:00 TS 10.6250 63.7962 main 1038 992 _________PO___ -1 10.6500 63.5924 TC 45 10.6000 64.0000 3 8 279
1940308N10074 1940 78 NI AS NOT_NAMED 1940-11-07 06:00:00 TS 10.6834 63.4068 main 992 958 _________OP___ -1 10.7000 63.2000 TC 45 10.6667 63.6136 3 8 281
1940308N10074 1940 78 NI AS NOT_NAMED 1940-11-07 09:00:00 TS 10.7636 63.0387 main 947 913 _________PP___ -1 10.7924 62.8425 TC 45 10.7348 63.2348 3 7 284
1940308N10074 1940 78 NI AS NOT_NAMED 1940-11-07 12:00:00 TS 10.8552 62.6818 main 913 870 _________OP___ -1 10.9000 62.5000 TC 45 10.8105 62.8636 3 7 285
1940308N10074 1940 78 NI AS NOT_NAMED 1940-11-07 15:00:00 TS 10.9462 62.3250 main 870 836 _________PO___ -1 10.9925 62.1499 TC 45 10.9000 62.5000 3 7 286
1940308N10074 1940 78 NI AS NOT_NAMED 1940-11-07 18:00:00 TS 11.0491 61.9734 main 836 788 _________OP___ -1 11.1000 61.8000 TC 45 10.9982 62.1467 3 7 288
1940308N10074 1940 78 NI AS NOT_NAMED 1940-11-07 21:00:00 TS 11.1736 61.6286 main 788 754 _________PP___ -1 11.2349 61.4574 TC 45 11.1122 61.7998 3 7 292
1940308N10074 1940 78 NI AS NOT_NAMED 1940-11-08 00:00:00 TS 11.3226 61.2765 main 754 707 _________OP___ -1 11.4000 61.1000 TC 45 11.2451 61.4529 3 8 294
1940308N10074 1940 78 NI AS NOT_NAMED 1940-11-08 03:00:00 TS 11.4963 60.9000 main 707 660 _________PO___ -1 11.5925 60.7000 TC 45 11.4000 61.1000 3 8 296
1940308N10074 1940 78 NI AS NOT_NAMED 1940-11-08 06:00:00 TS 11.6851 60.5140 main 660 624 _________OP___ -1 11.8000 60.3000 TC 45 11.5703 60.7281 3 8 297
1940308N10074 1940 78 NI AS NOT_NAMED 1940-11-08 09:00:00 TS 11.8736 60.1536 main 624 578 _________PP___ -1 11.9849 59.9573 TC 45 11.7624 60.3499 3 8 299
1940308N10074 1940 78 NI AS NOT_NAMED 1940-11-08 12:00:00 TS 12.0867 59.7859 main 578 533 _________OP___ -1 12.2000 59.6000 TC 45 11.9734 59.9717 3 9 302
1940308N10074 1940 78 NI AS NOT_NAMED 1940-11-08 15:00:00 TS 12.3501 59.3676 main 532 488 _________PO___ -1 12.5001 59.1352 TC 49 12.2000 59.6000 3 10 304
1940308N10074 1940 78 NI AS NOT_NAMED 1940-11-08 18:00:00 TS 12.6382 58.9432 main 477 446 _________OP___ -1 12.8000 58.7000 TC 54 12.4764 59.1864 3 9 306
1940308N10074 1940 78 NI AS NOT_NAMED 1940-11-08 21:00:00 TS 12.9026 58.5853 main 446 415 _________PP___ -1 13.0449 58.3824 TC 59 12.7603 58.7882 3 8 308
1940308N10074 1940 78 NI AS NOT_NAMED 1940-11-09 00:00:00 TS 13.1070 58.3229 main 415 406 _________OP___ -1 13.2000 58.2000 TC 64 13.0140 58.4458 3 5 308
1940308N10074 1940 78 NI AS NOT_NAMED 1940-11-09 03:00:00 TS 13.2150 58.1812 main 406 396 _________PO___ -1 13.2300 58.1624 TC 64 13.2000 58.2000 4 2 307
1940308N10074 1940 78 NI AS NOT_NAMED 1940-11-09 06:00:00 TS 13.2358 58.1495 main 396 396 _________OP___ -1 13.2000 58.2000 TC 64 13.2716 58.0990 4 0 304
1940308N10074 1940 78 NI AS NOT_NAMED 1940-11-09 09:00:00 TS 13.2373 58.1473 main 396 396 _________PP___ -1 13.2000 58.2000 TC 64 13.2747 58.0946 4 0 0
1940308N10074 1940 78 NI AS NOT_NAMED 1940-11-09 12:00:00 TS 13.2202 58.1715 main 406 406 _________OP___ -1 13.2000 58.2000 TC 64 13.2405 58.1429 4 1 123
1940308N10074 1940 78 NI AS NOT_NAMED 1940-11-09 15:00:00 TS 13.2000 58.2000 main 406 406 _________PO___ -1 13.2000 58.2000 TC 64 13.2000 58.2000 4 1 131
1940308N10074 1940 78 NI AS NOT_NAMED 1940-11-09 18:00:00 TS 13.1837 58.2101 main 406 406 _________OP___ -1 13.2000 58.2000 TC 64 13.1675 58.2202 4 0 0
1940308N10074 1940 78 NI AS NOT_NAMED 1940-11-09 21:00:00 TS 13.1587 58.2262 main 406 406 _________PP___ -1 13.1775 58.2150 TC 64 13.1400 58.2374 4 0 0
1940308N10074 1940 78 NI AS NOT_NAMED 1940-11-10 00:00:00 TS 13.1712 58.2179 main 406 406 _________OP___ -1 13.2000 58.2000 TC 64 13.1425 58.2358 4 1 325
1940308N10074 1940 78 NI AS NOT_NAMED 1940-11-10 03:00:00 TS 13.2562 58.1612 main 408 389 _________PO___ -1 13.3125 58.1225 TC 64 13.2000 58.2000 4 3 325
1940308N10074 1940 78 NI AS NOT_NAMED 1940-11-10 06:00:00 TS 13.4193 58.0394 main 389 382 _________OP___ -1 13.5000 58.0000 TC 64 13.3385 58.0787 4 5 324
1940308N10074 1940 78 NI AS NOT_NAMED 1940-11-10 09:00:00 TS 13.6338 57.8815 main 385 375 _________PP___ -1 13.7350 57.8351 TC 64 13.5326 57.9280 4 5 328
1940308N10074 1940 78 NI AS NOT_NAMED 1940-11-10 12:00:00 TS 13.8802 57.7441 main 375 375 _________OP___ -1 14.0000 57.7000 TC 64 13.7604 57.7882 4 5 338
1940308N10074 1940 78 NI AS NOT_NAMED 1940-11-10 15:00:00 TS 14.1287 57.6775 main 384 384 _________PO___ -1 14.2575 57.6550 TC 56 14.0000 57.7000 4 5 354
1940308N10074 1940 78 NI AS NOT_NAMED 1940-11-10 18:00:00 TS 14.3478 57.6964 main 395 395 _________OP___ -1 14.5000 57.7000 TC 49 14.2337 57.6937 4 4 14
1940308N10074 1940 78 NI AS NOT_NAMED 1940-11-10 21:00:00 TS 14.5600 57.7851 main 395 387 _________PP___ -1 14.7100 57.8274 TC 41 14.4600 57.7569 4 5 27
1940308N10074 1940 78 NI AS NOT_NAMED 1940-11-11 00:00:00 TS 14.7542 57.9112 main 382 376 _________OP___ -1 14.9000 58.0000 TC 34 14.6813 57.8667 4 4 32
1940308N10074 1940 78 NI AS NOT_NAMED 1940-11-11 03:00:00 NR 14.9000 58.0000 main 376 __________O___ -1 TC 14.9000 58.0000 2 3 32

IBTrACS Databaseについて

本データベースは、米国NOAAが公開する1842年以降の世界の熱帯低気圧のベストトラックデータアーカイブInternational Best Track Archive for Climate Stewardship (IBTrACS)を、ウェブで閲覧しやすい形式に変換したものです。

最終更新日:2021-10-19